KINDAKUN POINT, BC current weather conditions

sailwx.info

Wind from 100 at 8 knots

Air temperature 10.0° C
Dewpoint 6.0° C

Last reported at 2014-Oct-25 19:00 UTC.
Time now 2014-Oct-25 21:17 UTC

Location: N 53°19' W 132°46'.
View on Google Maps.

See reports from other nearby stations

  
Tides and Currents Weather Stations Pressure Air Temp Water Temp Dewpoint Dewpoint Depression Visibility Wind Speed Wind Dir Waves Ship Positions
date/time (UTC)wind fromknots sea level pressurealtimeterstation pressurevisibilityair tempwater tempwave heightnotes
2014-Oct-25 20:00 110 12 gusting 17 12.0
2014-Oct-25 19:00 100 8 10.0
2014-Oct-25 18:00 090 7 10.0
2014-Oct-25 17:00 100 6 9.0
2014-Oct-25 16:00 110 10 gusting 16 9.0
2014-Oct-25 15:00 100 6 9.0
2014-Oct-25 14:00 110 8 9.0
2014-Oct-25 13:00 120 9 10.0
2014-Oct-25 12:00 140 12 gusting 17 10.0
2014-Oct-25 11:00 150 16 gusting 20 10.0
2014-Oct-25 10:00 160 16 10.0
2014-Oct-25 09:00 160 15 gusting 20 10.0
2014-Oct-25 08:00 150 15 gusting 20 10.0
2014-Oct-25 07:00 150 15 10.0
2014-Oct-25 06:00 160 17 gusting 24 10.0
2014-Oct-25 05:00 160 15 gusting 20 10.0
2014-Oct-25 04:00 130 10 10.0
2014-Oct-25 03:00 130 10 gusting 17 10.0
2014-Oct-25 02:00 150 16 gusting 27 10.0
2014-Oct-25 01:00 150 15 10.0
2014-Oct-25 00:00 160 15 11.0
2014-Oct-24 23:00 160 19 gusting 24 12.0
2014-Oct-24 22:00 160 18 gusting 24 11.0
2014-Oct-24 21:00 160 18 12.0
2014-Oct-24 20:00 160 20 gusting 25 11.0
2014-Oct-24 19:00 160 19 gusting 24 12.0
2014-Oct-24 18:00 150 17 gusting 22 11.0
2014-Oct-24 17:00 160 19 gusting 26 10.0
2014-Oct-24 16:00 150 18 gusting 30 11.0
2014-Oct-24 15:00 160 17 gusting 22 11.0
2014-Oct-24 14:00 170 22 gusting 34 11.0
2014-Oct-24 13:00 160 23 gusting 27 9.0
2014-Oct-24 12:00 200 27 gusting 33 11.0
2014-Oct-24 11:00 160 24 gusting 31 12.0
2014-Oct-24 10:00 160 22 gusting 29 11.0
2014-Oct-24 09:00 150 20 gusting 30 11.0
2014-Oct-24 08:00 160 19 gusting 27 11.0
2014-Oct-24 07:00 150 17 gusting 23 11.0
2014-Oct-24 06:00 150 15 11.0
2014-Oct-24 05:00 120 12 gusting 23 10.0
2014-Oct-24 04:00 120 12 gusting 18 10.0
2014-Oct-24 03:00 140 11 10.0
2014-Oct-24 02:00 130 11 10.0
2014-Oct-24 01:00 170 13 gusting 19 10.0
2014-Oct-24 00:00 170 12 gusting 17 10.0
2014-Oct-23 23:00 140 12 gusting 17 9.0
2014-Oct-23 22:00 150 15 9.0
2014-Oct-23 21:00 140 12 gusting 19 10.0